Lansing, North Carolina
Current Conditions -  °F | °C
As of 7:15 PM on Friday 21 Nov 2014 (Local Time) from KGEV Reporting Station
Clear Clear  
Wind Chill: 33°   Ceiling: Unl
Heat Index: 33°   Visibility: 10mi
Dew Point: -6°   Wind: 0mph
Humidity: 19%   Direction: NA
Pressure: 30.39"   Gusts: NA
Location:  36.5°N, 81.51°W
Report Text: KGEV 220015Z AUTO 00000KT 10SM CLR 01/M21 A3039 RMK AO2 T00071209
Loading
Personal Weather Stations






























Interactive Weather Map New forecast layout! Learn more

10-Day Weather Forecast

Advertisements
Track Severe Weather on mobile